sensor_id;sensor_type;location;lat;lon;timestamp;P1;durP1;ratioP1;P2;durP2;ratioP2
46561;SDS011;32289;42.688;23.330;2022-07-03T00:00:04;10.68;;;8.82;;
46561;SDS011;32289;42.688;23.330;2022-07-03T00:03:45;14.35;;;7.82;;
46561;SDS011;32289;42.688;23.330;2022-07-03T00:07:26;12.38;;;8.02;;
46561;SDS011;32289;42.688;23.330;2022-07-03T00:11:07;10.90;;;7.22;;
46561;SDS011;32289;42.688;23.330;2022-07-03T00:14:49;12.68;;;8.35;;
46561;SDS011;32289;42.688;23.330;2022-07-03T00:18:31;14.20;;;7.82;;
46561;SDS011;32289;42.688;23.330;2022-07-03T00:22:12;10.32;;;7.50;;
46561;SDS011;32289;42.688;23.330;2022-07-03T00:25:53;9.52;;;7.72;;
46561;SDS011;32289;42.688;23.330;2022-07-03T00:29:38;11.68;;;7.82;;
46561;SDS011;32289;42.688;23.330;2022-07-03T00:33:21;9.18;;;6.55;;
46561;SDS011;32289;42.688;23.330;2022-07-03T00:37:08;10.35;;;7.00;;
46561;SDS011;32289;42.688;23.330;2022-07-03T00:40:50;9.52;;;6.57;;
46561;SDS011;32289;42.688;23.330;2022-07-03T00:44:33;12.35;;;7.45;;
46561;SDS011;32289;42.688;23.330;2022-07-03T00:48:18;11.25;;;7.35;;
46561;SDS011;32289;42.688;23.330;2022-07-03T00:51:59;12.18;;;7.38;;
46561;SDS011;32289;42.688;23.330;2022-07-03T00:55:47;9.25;;;7.15;;
46561;SDS011;32289;42.688;23.330;2022-07-03T00:59:29;10.70;;;7.05;;
46561;SDS011;32289;42.688;23.330;2022-07-03T01:03:14;10.70;;;7.93;;
46561;SDS011;32289;42.688;23.330;2022-07-03T01:14:49;10.30;;;6.60;;
46561;SDS011;32289;42.688;23.330;2022-07-03T01:18:53;13.88;;;7.78;;
46561;SDS011;32289;42.688;23.330;2022-07-03T01:22:43;10.95;;;7.38;;
46561;SDS011;32289;42.688;23.330;2022-07-03T01:26:28;12.32;;;7.32;;
46561;SDS011;32289;42.688;23.330;2022-07-03T01:30:15;10.40;;;6.80;;
46561;SDS011;32289;42.688;23.330;2022-07-03T01:33:58;10.77;;;7.38;;
46561;SDS011;32289;42.688;23.330;2022-07-03T01:37:41;13.05;;;7.55;;
46561;SDS011;32289;42.688;23.330;2022-07-03T01:41:23;10.18;;;7.68;;
46561;SDS011;32289;42.688;23.330;2022-07-03T01:45:09;11.05;;;8.13;;
46561;SDS011;32289;42.688;23.330;2022-07-03T01:48:53;13.75;;;7.75;;
46561;SDS011;32289;42.688;23.330;2022-07-03T01:52:35;13.93;;;8.68;;
46561;SDS011;32289;42.688;23.330;2022-07-03T01:56:18;11.90;;;7.57;;
46561;SDS011;32289;42.688;23.330;2022-07-03T02:00:00;14.35;;;8.55;;
46561;SDS011;32289;42.688;23.330;2022-07-03T02:03:42;13.93;;;8.73;;
46561;SDS011;32289;42.688;23.330;2022-07-03T02:12:18;10.70;;;7.50;;
46561;SDS011;32289;42.688;23.330;2022-07-03T02:15:59;17.77;;;8.30;;
46561;SDS011;32289;42.688;23.330;2022-07-03T02:23:30;12.88;;;7.93;;
46561;SDS011;32289;42.688;23.330;2022-07-03T02:27:16;14.02;;;8.10;;
46561;SDS011;32289;42.688;23.330;2022-07-03T02:34:45;13.90;;;8.13;;
46561;SDS011;32289;42.688;23.330;2022-07-03T02:38:35;11.70;;;8.43;;
46561;SDS011;32289;42.688;23.330;2022-07-03T02:50:34;13.70;;;8.07;;
46561;SDS011;32289;42.688;23.330;2022-07-03T02:54:20;13.65;;;8.68;;
46561;SDS011;32289;42.688;23.330;2022-07-03T03:06:29;11.45;;;8.57;;
46561;SDS011;32289;42.688;23.330;2022-07-03T03:10:13;11.68;;;6.35;;
46561;SDS011;32289;42.688;23.330;2022-07-03T03:13:58;11.57;;;8.25;;
46561;SDS011;32289;42.688;23.330;2022-07-03T03:17:43;11.55;;;7.93;;
46561;SDS011;32289;42.688;23.330;2022-07-03T03:21:30;12.65;;;8.18;;
46561;SDS011;32289;42.688;23.330;2022-07-03T03:25:16;13.43;;;8.27;;
46561;SDS011;32289;42.688;23.330;2022-07-03T03:28:58;11.98;;;7.85;;
46561;SDS011;32289;42.688;23.330;2022-07-03T03:32:39;10.50;;;8.15;;
46561;SDS011;32289;42.688;23.330;2022-07-03T03:36:21;12.60;;;8.50;;
46561;SDS011;32289;42.688;23.330;2022-07-03T03:40:02;13.23;;;8.38;;
46561;SDS011;32289;42.688;23.330;2022-07-03T03:43:44;12.63;;;7.85;;
46561;SDS011;32289;42.688;23.330;2022-07-03T03:47:25;11.13;;;7.65;;
46561;SDS011;32289;42.688;23.330;2022-07-03T03:51:06;11.88;;;8.13;;
46561;SDS011;32289;42.688;23.330;2022-07-03T03:54:47;12.18;;;7.68;;
46561;SDS011;32289;42.688;23.330;2022-07-03T03:58:28;9.95;;;7.25;;
46561;SDS011;32289;42.688;23.330;2022-07-03T04:02:10;11.95;;;7.85;;
46561;SDS011;32289;42.688;23.330;2022-07-03T04:05:52;9.52;;;7.75;;
46561;SDS011;32289;42.688;23.330;2022-07-03T04:09:33;10.32;;;6.97;;
46561;SDS011;32289;42.688;23.330;2022-07-03T04:13:15;11.32;;;7.25;;
46561;SDS011;32289;42.688;23.330;2022-07-03T04:16:56;11.07;;;7.35;;
46561;SDS011;32289;42.688;23.330;2022-07-03T04:20:37;10.52;;;7.10;;
46561;SDS011;32289;42.688;23.330;2022-07-03T04:24:18;11.57;;;7.22;;
46561;SDS011;32289;42.688;23.330;2022-07-03T04:27:59;11.45;;;6.65;;
46561;SDS011;32289;42.688;23.330;2022-07-03T04:31:39;9.57;;;6.57;;
46561;SDS011;32289;42.688;23.330;2022-07-03T04:35:20;9.00;;;7.03;;
46561;SDS011;32289;42.688;23.330;2022-07-03T04:39:01;9.98;;;7.30;;
46561;SDS011;32289;42.688;23.330;2022-07-03T04:42:42;11.07;;;6.78;;
46561;SDS011;32289;42.688;23.330;2022-07-03T04:46:22;13.02;;;6.93;;
46561;SDS011;32289;42.688;23.330;2022-07-03T04:50:03;13.40;;;7.60;;
46561;SDS011;32289;42.688;23.330;2022-07-03T04:53:44;10.57;;;7.18;;
46561;SDS011;32289;42.688;23.330;2022-07-03T04:57:25;10.70;;;6.75;;
46561;SDS011;32289;42.688;23.330;2022-07-03T05:01:06;8.63;;;6.72;;
46561;SDS011;32289;42.688;23.330;2022-07-03T05:04:46;8.77;;;6.18;;
46561;SDS011;32289;42.688;23.330;2022-07-03T05:08:27;9.10;;;5.93;;
46561;SDS011;32289;42.688;23.330;2022-07-03T05:12:08;7.30;;;6.05;;
46561;SDS011;32289;42.688;23.330;2022-07-03T05:15:49;11.05;;;6.55;;
46561;SDS011;32289;42.688;23.330;2022-07-03T05:19:29;9.45;;;6.68;;
46561;SDS011;32289;42.688;23.330;2022-07-03T05:23:10;9.70;;;5.55;;
46561;SDS011;32289;42.688;23.330;2022-07-03T05:26:51;8.10;;;7.18;;
46561;SDS011;32289;42.688;23.330;2022-07-03T05:30:32;9.95;;;7.28;;
46561;SDS011;32289;42.688;23.330;2022-07-03T05:34:13;9.25;;;7.15;;
46561;SDS011;32289;42.688;23.330;2022-07-03T05:37:54;12.60;;;7.18;;
46561;SDS011;32289;42.688;23.330;2022-07-03T05:41:34;11.52;;;7.00;;
46561;SDS011;32289;42.688;23.330;2022-07-03T05:45:15;10.35;;;7.05;;
46561;SDS011;32289;42.688;23.330;2022-07-03T05:48:56;9.02;;;7.35;;
46561;SDS011;32289;42.688;23.330;2022-07-03T05:52:37;14.65;;;8.57;;
46561;SDS011;32289;42.688;23.330;2022-07-03T05:56:17;9.50;;;7.45;;
46561;SDS011;32289;42.688;23.330;2022-07-03T05:59:58;12.60;;;10.25;;
46561;SDS011;32289;42.688;23.330;2022-07-03T06:03:39;8.75;;;7.05;;
46561;SDS011;32289;42.688;23.330;2022-07-03T06:07:20;9.15;;;7.35;;
46561;SDS011;32289;42.688;23.330;2022-07-03T06:11:02;7.82;;;7.03;;
46561;SDS011;32289;42.688;23.330;2022-07-03T06:14:42;9.15;;;6.75;;
46561;SDS011;32289;42.688;23.330;2022-07-03T06:18:23;9.32;;;6.75;;
46561;SDS011;32289;42.688;23.330;2022-07-03T06:22:03;9.32;;;6.60;;
46561;SDS011;32289;42.688;23.330;2022-07-03T06:25:44;9.63;;;5.95;;
46561;SDS011;32289;42.688;23.330;2022-07-03T06:29:25;9.75;;;6.95;;
46561;SDS011;32289;42.688;23.330;2022-07-03T06:33:05;9.55;;;6.45;;
46561;SDS011;32289;42.688;23.330;2022-07-03T06:36:46;14.57;;;7.07;;
46561;SDS011;32289;42.688;23.330;2022-07-03T06:40:27;11.98;;;6.97;;
46561;SDS011;32289;42.688;23.330;2022-07-03T06:44:08;10.40;;;6.80;;
46561;SDS011;32289;42.688;23.330;2022-07-03T06:47:48;7.68;;;6.22;;
46561;SDS011;32289;42.688;23.330;2022-07-03T06:51:29;6.75;;;6.05;;
46561;SDS011;32289;42.688;23.330;2022-07-03T06:55:10;15.02;;;6.60;;
46561;SDS011;32289;42.688;23.330;2022-07-03T06:58:50;7.20;;;6.50;;
46561;SDS011;32289;42.688;23.330;2022-07-03T07:02:31;10.50;;;6.65;;
46561;SDS011;32289;42.688;23.330;2022-07-03T07:06:13;6.97;;;5.35;;
46561;SDS011;32289;42.688;23.330;2022-07-03T07:09:54;8.65;;;6.30;;
46561;SDS011;32289;42.688;23.330;2022-07-03T07:13:34;9.40;;;6.22;;
46561;SDS011;32289;42.688;23.330;2022-07-03T07:17:15;9.93;;;6.30;;
46561;SDS011;32289;42.688;23.330;2022-07-03T07:20:56;6.55;;;5.82;;
46561;SDS011;32289;42.688;23.330;2022-07-03T07:24:37;10.65;;;7.90;;
46561;SDS011;32289;42.688;23.330;2022-07-03T07:28:17;8.50;;;5.75;;
46561;SDS011;32289;42.688;23.330;2022-07-03T07:31:58;13.43;;;6.55;;
46561;SDS011;32289;42.688;23.330;2022-07-03T07:35:39;8.65;;;6.15;;
46561;SDS011;32289;42.688;23.330;2022-07-03T07:39:20;7.15;;;5.53;;
46561;SDS011;32289;42.688;23.330;2022-07-03T07:43:00;6.68;;;6.00;;
46561;SDS011;32289;42.688;23.330;2022-07-03T07:46:41;7.20;;;6.07;;
46561;SDS011;32289;42.688;23.330;2022-07-03T07:50:22;7.97;;;5.75;;
46561;SDS011;32289;42.688;23.330;2022-07-03T07:54:03;6.93;;;5.90;;
46561;SDS011;32289;42.688;23.330;2022-07-03T07:57:43;6.15;;;5.53;;
46561;SDS011;32289;42.688;23.330;2022-07-03T08:01:25;8.15;;;5.93;;
46561;SDS011;32289;42.688;23.330;2022-07-03T08:05:27;6.82;;;5.30;;
46561;SDS011;32289;42.688;23.330;2022-07-03T08:09:18;9.18;;;6.15;;
46561;SDS011;32289;42.688;23.330;2022-07-03T08:12:59;8.90;;;6.00;;
46561;SDS011;32289;42.688;23.330;2022-07-03T08:16:39;7.47;;;5.70;;
46561;SDS011;32289;42.688;23.330;2022-07-03T08:20:21;5.75;;;5.25;;
46561;SDS011;32289;42.688;23.330;2022-07-03T08:24:01;7.60;;;5.38;;
46561;SDS011;32289;42.688;23.330;2022-07-03T08:27:42;6.60;;;5.35;;
46561;SDS011;32289;42.688;23.330;2022-07-03T08:31:23;8.30;;;5.30;;
46561;SDS011;32289;42.688;23.330;2022-07-03T08:35:04;5.70;;;4.88;;
46561;SDS011;32289;42.688;23.330;2022-07-03T08:38:45;6.72;;;4.82;;
46561;SDS011;32289;42.688;23.330;2022-07-03T08:42:26;11.82;;;5.18;;
46561;SDS011;32289;42.688;23.330;2022-07-03T08:46:10;6.38;;;5.15;;
46561;SDS011;32289;42.688;23.330;2022-07-03T08:49:51;5.88;;;4.55;;
46561;SDS011;32289;42.688;23.330;2022-07-03T08:53:33;5.60;;;5.00;;
46561;SDS011;32289;42.688;23.330;2022-07-03T08:57:14;8.45;;;5.25;;
46561;SDS011;32289;42.688;23.330;2022-07-03T09:00:55;5.85;;;4.80;;
46561;SDS011;32289;42.688;23.330;2022-07-03T09:04:36;7.82;;;4.70;;
46561;SDS011;32289;42.688;23.330;2022-07-03T09:08:18;5.22;;;4.57;;
46561;SDS011;32289;42.688;23.330;2022-07-03T09:12:00;5.45;;;4.25;;
46561;SDS011;32289;42.688;23.330;2022-07-03T09:15:41;4.82;;;3.90;;
46561;SDS011;32289;42.688;23.330;2022-07-03T09:19:40;5.35;;;4.60;;
46561;SDS011;32289;42.688;23.330;2022-07-03T09:23:28;4.35;;;3.95;;
46561;SDS011;32289;42.688;23.330;2022-07-03T09:27:22;6.07;;;3.97;;
46561;SDS011;32289;42.688;23.330;2022-07-03T09:31:03;6.43;;;4.20;;
46561;SDS011;32289;42.688;23.330;2022-07-03T09:34:44;5.32;;;4.32;;
46561;SDS011;32289;42.688;23.330;2022-07-03T09:38:25;5.18;;;4.38;;
46561;SDS011;32289;42.688;23.330;2022-07-03T09:42:06;3.88;;;3.58;;
46561;SDS011;32289;42.688;23.330;2022-07-03T09:49:54;6.35;;;4.32;;
46561;SDS011;32289;42.688;23.330;2022-07-03T09:53:45;6.38;;;4.30;;
46561;SDS011;32289;42.688;23.330;2022-07-03T09:57:34;7.97;;;4.75;;
46561;SDS011;32289;42.688;23.330;2022-07-03T10:01:18;7.32;;;3.80;;
46561;SDS011;32289;42.688;23.330;2022-07-03T10:05:21;6.13;;;3.90;;
46561;SDS011;32289;42.688;23.330;2022-07-03T10:09:01;7.00;;;4.68;;
46561;SDS011;32289;42.688;23.330;2022-07-03T10:12:43;4.75;;;4.25;;
46561;SDS011;32289;42.688;23.330;2022-07-03T10:16:24;3.80;;;3.42;;
46561;SDS011;32289;42.688;23.330;2022-07-03T10:20:06;4.70;;;3.53;;
46561;SDS011;32289;42.688;23.330;2022-07-03T10:23:47;12.30;;;3.50;;
46561;SDS011;32289;42.688;23.330;2022-07-03T10:27:28;4.40;;;3.78;;
46561;SDS011;32289;42.688;23.330;2022-07-03T10:31:10;5.35;;;3.47;;
46561;SDS011;32289;42.688;23.330;2022-07-03T10:34:53;4.07;;;2.95;;
46561;SDS011;32289;42.688;23.330;2022-07-03T10:38:35;4.05;;;2.78;;
46561;SDS011;32289;42.688;23.330;2022-07-03T10:42:31;4.60;;;3.03;;
46561;SDS011;32289;42.688;23.330;2022-07-03T10:46:33;6.05;;;2.50;;
46561;SDS011;32289;42.688;23.330;2022-07-03T10:50:18;4.25;;;3.00;;
46561;SDS011;32289;42.688;23.330;2022-07-03T10:58:07;3.17;;;2.78;;
46561;SDS011;32289;42.688;23.330;2022-07-03T11:01:49;4.95;;;3.00;;
46561;SDS011;32289;42.688;23.330;2022-07-03T11:05:36;4.47;;;2.92;;
46561;SDS011;32289;42.688;23.330;2022-07-03T11:09:17;4.38;;;3.20;;
46561;SDS011;32289;42.688;23.330;2022-07-03T11:13:05;4.18;;;2.95;;
46561;SDS011;32289;42.688;23.330;2022-07-03T11:16:46;7.13;;;2.97;;
46561;SDS011;32289;42.688;23.330;2022-07-03T11:20:27;4.93;;;3.40;;
46561;SDS011;32289;42.688;23.330;2022-07-03T11:27:49;5.50;;;3.38;;
46561;SDS011;32289;42.688;23.330;2022-07-03T11:31:32;4.40;;;3.47;;
46561;SDS011;32289;42.688;23.330;2022-07-03T11:39:34;4.40;;;2.78;;
46561;SDS011;32289;42.688;23.330;2022-07-03T11:43:16;4.65;;;3.10;;
46561;SDS011;32289;42.688;23.330;2022-07-03T11:46:57;3.65;;;3.17;;
46561;SDS011;32289;42.688;23.330;2022-07-03T11:50:39;5.22;;;3.25;;
46561;SDS011;32289;42.688;23.330;2022-07-03T11:54:21;6.25;;;3.65;;
46561;SDS011;32289;42.688;23.330;2022-07-03T11:58:02;4.30;;;3.35;;
46561;SDS011;32289;42.688;23.330;2022-07-03T12:01:43;5.50;;;3.50;;
46561;SDS011;32289;42.688;23.330;2022-07-03T12:05:25;5.35;;;3.17;;
46561;SDS011;32289;42.688;23.330;2022-07-03T12:09:15;4.82;;;3.35;;
46561;SDS011;32289;42.688;23.330;2022-07-03T12:13:03;4.73;;;3.67;;
46561;SDS011;32289;42.688;23.330;2022-07-03T12:16:44;7.38;;;3.65;;
46561;SDS011;32289;42.688;23.330;2022-07-03T12:20:25;4.15;;;3.75;;
46561;SDS011;32289;42.688;23.330;2022-07-03T12:24:09;8.50;;;4.25;;
46561;SDS011;32289;42.688;23.330;2022-07-03T12:27:53;4.13;;;3.63;;
46561;SDS011;32289;42.688;23.330;2022-07-03T12:31:34;9.02;;;4.18;;
46561;SDS011;32289;42.688;23.330;2022-07-03T12:35:22;5.13;;;3.85;;
46561;SDS011;32289;42.688;23.330;2022-07-03T12:39:06;6.28;;;3.80;;
46561;SDS011;32289;42.688;23.330;2022-07-03T12:42:51;4.15;;;3.75;;
46561;SDS011;32289;42.688;23.330;2022-07-03T12:46:34;4.55;;;3.50;;
46561;SDS011;32289;42.688;23.330;2022-07-03T12:50:15;4.80;;;3.80;;
46561;SDS011;32289;42.688;23.330;2022-07-03T12:53:56;5.20;;;4.03;;
46561;SDS011;32289;42.688;23.330;2022-07-03T12:57:36;4.25;;;3.85;;
46561;SDS011;32289;42.688;23.330;2022-07-03T13:01:36;5.20;;;4.35;;
46561;SDS011;32289;42.688;23.330;2022-07-03T13:05:20;4.70;;;3.80;;
46561;SDS011;32289;42.688;23.330;2022-07-03T13:09:06;7.43;;;3.80;;
46561;SDS011;32289;42.688;23.330;2022-07-03T13:16:34;4.47;;;3.75;;
46561;SDS011;32289;42.688;23.330;2022-07-03T13:20:23;7.03;;;3.92;;
46561;SDS011;32289;42.688;23.330;2022-07-03T13:24:05;5.63;;;4.03;;
46561;SDS011;32289;42.688;23.330;2022-07-03T13:27:46;12.18;;;4.60;;
46561;SDS011;32289;42.688;23.330;2022-07-03T13:31:27;8.23;;;4.20;;
46561;SDS011;32289;42.688;23.330;2022-07-03T13:35:09;6.13;;;4.00;;
46561;SDS011;32289;42.688;23.330;2022-07-03T13:38:50;6.03;;;4.40;;
46561;SDS011;32289;42.688;23.330;2022-07-03T13:42:30;8.18;;;4.93;;
46561;SDS011;32289;42.688;23.330;2022-07-03T13:46:12;5.20;;;4.57;;
46561;SDS011;32289;42.688;23.330;2022-07-03T13:49:52;9.75;;;4.75;;
46561;SDS011;32289;42.688;23.330;2022-07-03T13:53:33;5.55;;;4.47;;
46561;SDS011;32289;42.688;23.330;2022-07-03T13:57:14;8.02;;;4.45;;
46561;SDS011;32289;42.688;23.330;2022-07-03T14:00:55;5.13;;;4.53;;
46561;SDS011;32289;42.688;23.330;2022-07-03T14:04:36;4.75;;;4.20;;
46561;SDS011;32289;42.688;23.330;2022-07-03T14:08:17;5.40;;;4.32;;
46561;SDS011;32289;42.688;23.330;2022-07-03T14:11:58;4.53;;;4.03;;
46561;SDS011;32289;42.688;23.330;2022-07-03T14:15:39;8.23;;;4.28;;
46561;SDS011;32289;42.688;23.330;2022-07-03T14:19:20;6.60;;;4.30;;
46561;SDS011;32289;42.688;23.330;2022-07-03T14:23:01;7.13;;;4.60;;
46561;SDS011;32289;42.688;23.330;2022-07-03T14:26:42;5.50;;;4.28;;
46561;SDS011;32289;42.688;23.330;2022-07-03T14:30:41;6.03;;;4.05;;
46561;SDS011;32289;42.688;23.330;2022-07-03T14:34:40;5.38;;;4.28;;
46561;SDS011;32289;42.688;23.330;2022-07-03T14:38:21;7.13;;;4.53;;
46561;SDS011;32289;42.688;23.330;2022-07-03T14:42:02;6.18;;;4.63;;
46561;SDS011;32289;42.688;23.330;2022-07-03T14:45:43;4.88;;;4.38;;
46561;SDS011;32289;42.688;23.330;2022-07-03T14:49:23;7.15;;;4.20;;
46561;SDS011;32289;42.688;23.330;2022-07-03T14:53:05;5.70;;;4.00;;
46561;SDS011;32289;42.688;23.330;2022-07-03T14:56:55;7.65;;;4.20;;
46561;SDS011;32289;42.688;23.330;2022-07-03T15:00:37;5.32;;;4.15;;
46561;SDS011;32289;42.688;23.330;2022-07-03T15:04:31;7.10;;;4.75;;
46561;SDS011;32289;42.688;23.330;2022-07-03T15:12:53;5.60;;;4.88;;
46561;SDS011;32289;42.688;23.330;2022-07-03T15:16:34;5.30;;;4.72;;
46561;SDS011;32289;42.688;23.330;2022-07-03T15:20:19;9.57;;;4.38;;
46561;SDS011;32289;42.688;23.330;2022-07-03T15:24:02;5.70;;;4.75;;
46561;SDS011;32289;42.688;23.330;2022-07-03T15:27:45;5.47;;;4.28;;
46561;SDS011;32289;42.688;23.330;2022-07-03T15:31:34;6.90;;;4.43;;
46561;SDS011;32289;42.688;23.330;2022-07-03T15:35:16;4.85;;;4.13;;
46561;SDS011;32289;42.688;23.330;2022-07-03T15:38:59;6.55;;;4.60;;
46561;SDS011;32289;42.688;23.330;2022-07-03T15:46:40;5.82;;;4.35;;
46561;SDS011;32289;42.688;23.330;2022-07-03T15:54:30;6.63;;;4.25;;
46561;SDS011;32289;42.688;23.330;2022-07-03T15:58:26;6.78;;;4.55;;
46561;SDS011;32289;42.688;23.330;2022-07-03T16:02:10;5.75;;;4.20;;
46561;SDS011;32289;42.688;23.330;2022-07-03T16:06:03;5.32;;;4.18;;
46561;SDS011;32289;42.688;23.330;2022-07-03T16:09:45;12.82;;;4.85;;
46561;SDS011;32289;42.688;23.330;2022-07-03T16:13:27;7.55;;;4.82;;
46561;SDS011;32289;42.688;23.330;2022-07-03T16:17:08;7.35;;;4.88;;
46561;SDS011;32289;42.688;23.330;2022-07-03T16:20:51;7.78;;;4.55;;
46561;SDS011;32289;42.688;23.330;2022-07-03T16:24:35;9.23;;;5.22;;
46561;SDS011;32289;42.688;23.330;2022-07-03T16:28:17;8.18;;;4.88;;
46561;SDS011;32289;42.688;23.330;2022-07-03T16:32:01;6.65;;;4.47;;
46561;SDS011;32289;42.688;23.330;2022-07-03T16:35:43;7.43;;;4.63;;
46561;SDS011;32289;42.688;23.330;2022-07-03T16:39:36;6.70;;;4.40;;
46561;SDS011;32289;42.688;23.330;2022-07-03T16:43:21;6.65;;;4.85;;
46561;SDS011;32289;42.688;23.330;2022-07-03T16:47:03;10.43;;;5.40;;
46561;SDS011;32289;42.688;23.330;2022-07-03T16:50:48;6.93;;;4.70;;
46561;SDS011;32289;42.688;23.330;2022-07-03T16:54:35;4.90;;;4.32;;
46561;SDS011;32289;42.688;23.330;2022-07-03T16:58:17;9.32;;;5.00;;
46561;SDS011;32289;42.688;23.330;2022-07-03T17:01:58;7.05;;;4.95;;
46561;SDS011;32289;42.688;23.330;2022-07-03T17:05:39;13.07;;;5.50;;
46561;SDS011;32289;42.688;23.330;2022-07-03T17:09:21;8.93;;;5.80;;
46561;SDS011;32289;42.688;23.330;2022-07-03T17:13:02;11.50;;;5.32;;
46561;SDS011;32289;42.688;23.330;2022-07-03T17:16:44;6.88;;;5.88;;
46561;SDS011;32289;42.688;23.330;2022-07-03T17:20:31;9.15;;;4.60;;
46561;SDS011;32289;42.688;23.330;2022-07-03T17:24:17;7.90;;;5.15;;
46561;SDS011;32289;42.688;23.330;2022-07-03T17:28:00;9.98;;;6.43;;
46561;SDS011;32289;42.688;23.330;2022-07-03T17:31:43;6.72;;;5.53;;
46561;SDS011;32289;42.688;23.330;2022-07-03T17:35:25;8.88;;;5.55;;
46561;SDS011;32289;42.688;23.330;2022-07-03T17:39:08;11.85;;;5.88;;
46561;SDS011;32289;42.688;23.330;2022-07-03T17:42:49;13.02;;;5.88;;
46561;SDS011;32289;42.688;23.330;2022-07-03T17:46:30;11.30;;;4.72;;
46561;SDS011;32289;42.688;23.330;2022-07-03T17:50:16;8.15;;;5.55;;
46561;SDS011;32289;42.688;23.330;2022-07-03T17:53:58;6.28;;;5.13;;
46561;SDS011;32289;42.688;23.330;2022-07-03T17:57:43;9.70;;;5.38;;
46561;SDS011;32289;42.688;23.330;2022-07-03T18:01:25;9.25;;;5.57;;
46561;SDS011;32289;42.688;23.330;2022-07-03T18:05:07;7.53;;;4.90;;
46561;SDS011;32289;42.688;23.330;2022-07-03T18:09:06;7.15;;;5.38;;
46561;SDS011;32289;42.688;23.330;2022-07-03T18:12:53;11.10;;;5.10;;
46561;SDS011;32289;42.688;23.330;2022-07-03T18:16:39;10.13;;;6.20;;
46561;SDS011;32289;42.688;23.330;2022-07-03T18:20:24;9.43;;;6.55;;
46561;SDS011;32289;42.688;23.330;2022-07-03T18:24:10;11.38;;;7.65;;
46561;SDS011;32289;42.688;23.330;2022-07-03T18:27:52;8.32;;;5.57;;
46561;SDS011;32289;42.688;23.330;2022-07-03T18:31:34;10.48;;;5.80;;
46561;SDS011;32289;42.688;23.330;2022-07-03T18:35:16;8.73;;;5.07;;
46561;SDS011;32289;42.688;23.330;2022-07-03T18:38:58;9.52;;;5.28;;
46561;SDS011;32289;42.688;23.330;2022-07-03T18:42:40;7.55;;;4.78;;
46561;SDS011;32289;42.688;23.330;2022-07-03T18:46:23;9.60;;;5.93;;
46561;SDS011;32289;42.688;23.330;2022-07-03T18:50:05;7.97;;;5.57;;
46561;SDS011;32289;42.688;23.330;2022-07-03T18:57:38;9.50;;;5.75;;
46561;SDS011;32289;42.688;23.330;2022-07-03T19:01:31;11.07;;;5.78;;
46561;SDS011;32289;42.688;23.330;2022-07-03T19:05:13;11.93;;;5.95;;
46561;SDS011;32289;42.688;23.330;2022-07-03T19:08:55;11.55;;;6.97;;
46561;SDS011;32289;42.688;23.330;2022-07-03T19:12:59;7.57;;;5.90;;
46561;SDS011;32289;42.688;23.330;2022-07-03T19:16:45;7.00;;;5.40;;
46561;SDS011;32289;42.688;23.330;2022-07-03T19:20:27;8.80;;;5.82;;
46561;SDS011;32289;42.688;23.330;2022-07-03T19:24:10;8.27;;;5.72;;
46561;SDS011;32289;42.688;23.330;2022-07-03T19:27:52;7.97;;;5.38;;
46561;SDS011;32289;42.688;23.330;2022-07-03T19:31:33;12.07;;;5.90;;
46561;SDS011;32289;42.688;23.330;2022-07-03T19:35:14;11.70;;;5.93;;
46561;SDS011;32289;42.688;23.330;2022-07-03T19:38:55;7.60;;;5.95;;
46561;SDS011;32289;42.688;23.330;2022-07-03T19:42:36;7.63;;;5.90;;
46561;SDS011;32289;42.688;23.330;2022-07-03T19:46:21;7.38;;;5.78;;
46561;SDS011;32289;42.688;23.330;2022-07-03T19:50:04;9.38;;;6.53;;
46561;SDS011;32289;42.688;23.330;2022-07-03T19:53:49;7.60;;;6.28;;
46561;SDS011;32289;42.688;23.330;2022-07-03T19:57:30;10.20;;;5.90;;
46561;SDS011;32289;42.688;23.330;2022-07-03T20:01:11;9.07;;;5.35;;
46561;SDS011;32289;42.688;23.330;2022-07-03T20:04:51;8.18;;;5.60;;
46561;SDS011;32289;42.688;23.330;2022-07-03T20:08:32;8.93;;;6.30;;
46561;SDS011;32289;42.688;23.330;2022-07-03T20:12:15;8.48;;;5.85;;
46561;SDS011;32289;42.688;23.330;2022-07-03T20:15:56;11.48;;;5.32;;
46561;SDS011;32289;42.688;23.330;2022-07-03T20:19:37;8.65;;;6.25;;
46561;SDS011;32289;42.688;23.330;2022-07-03T20:23:21;8.00;;;6.43;;
46561;SDS011;32289;42.688;23.330;2022-07-03T20:27:06;13.30;;;6.43;;
46561;SDS011;32289;42.688;23.330;2022-07-03T20:31:00;8.83;;;5.93;;
46561;SDS011;32289;42.688;23.330;2022-07-03T20:34:44;7.97;;;6.18;;
46561;SDS011;32289;42.688;23.330;2022-07-03T20:38:25;9.15;;;5.65;;
46561;SDS011;32289;42.688;23.330;2022-07-03T20:42:07;6.70;;;5.75;;
46561;SDS011;32289;42.688;23.330;2022-07-03T20:45:50;6.63;;;5.43;;
46561;SDS011;32289;42.688;23.330;2022-07-03T20:49:30;7.85;;;6.35;;
46561;SDS011;32289;42.688;23.330;2022-07-03T20:53:11;8.77;;;6.95;;
46561;SDS011;32289;42.688;23.330;2022-07-03T20:56:53;10.70;;;6.63;;
46561;SDS011;32289;42.688;23.330;2022-07-03T21:00:33;12.07;;;6.90;;
46561;SDS011;32289;42.688;23.330;2022-07-03T21:04:14;10.93;;;5.95;;
46561;SDS011;32289;42.688;23.330;2022-07-03T21:07:55;7.63;;;6.78;;
46561;SDS011;32289;42.688;23.330;2022-07-03T21:11:35;7.95;;;6.53;;
46561;SDS011;32289;42.688;23.330;2022-07-03T21:15:20;9.13;;;6.13;;
46561;SDS011;32289;42.688;23.330;2022-07-03T21:19:02;8.70;;;5.93;;
46561;SDS011;32289;42.688;23.330;2022-07-03T21:22:44;8.45;;;6.10;;
46561;SDS011;32289;42.688;23.330;2022-07-03T21:26:25;10.70;;;7.00;;
46561;SDS011;32289;42.688;23.330;2022-07-03T21:30:06;9.70;;;7.13;;
46561;SDS011;32289;42.688;23.330;2022-07-03T21:33:47;10.55;;;7.10;;
46561;SDS011;32289;42.688;23.330;2022-07-03T21:37:28;11.98;;;8.05;;
46561;SDS011;32289;42.688;23.330;2022-07-03T21:41:09;11.18;;;7.88;;
46561;SDS011;32289;42.688;23.330;2022-07-03T21:44:50;10.38;;;7.05;;
46561;SDS011;32289;42.688;23.330;2022-07-03T21:48:31;8.45;;;6.45;;
46561;SDS011;32289;42.688;23.330;2022-07-03T21:52:12;10.63;;;5.38;;
46561;SDS011;32289;42.688;23.330;2022-07-03T21:55:52;6.95;;;5.00;;
46561;SDS011;32289;42.688;23.330;2022-07-03T21:59:33;9.85;;;5.63;;
46561;SDS011;32289;42.688;23.330;2022-07-03T22:03:14;7.00;;;5.25;;
46561;SDS011;32289;42.688;23.330;2022-07-03T22:06:55;7.63;;;5.28;;
46561;SDS011;32289;42.688;23.330;2022-07-03T22:10:36;5.68;;;4.25;;
46561;SDS011;32289;42.688;23.330;2022-07-03T22:14:16;6.88;;;5.38;;
46561;SDS011;32289;42.688;23.330;2022-07-03T22:17:57;9.05;;;5.28;;
46561;SDS011;32289;42.688;23.330;2022-07-03T22:21:38;8.13;;;4.60;;
46561;SDS011;32289;42.688;23.330;2022-07-03T22:25:18;6.20;;;4.55;;
46561;SDS011;32289;42.688;23.330;2022-07-03T22:28:59;9.15;;;5.20;;
46561;SDS011;32289;42.688;23.330;2022-07-03T22:32:41;10.88;;;4.95;;
46561;SDS011;32289;42.688;23.330;2022-07-03T22:36:23;8.75;;;4.97;;
46561;SDS011;32289;42.688;23.330;2022-07-03T22:40:03;8.88;;;4.25;;
46561;SDS011;32289;42.688;23.330;2022-07-03T22:43:45;8.27;;;5.40;;
46561;SDS011;32289;42.688;23.330;2022-07-03T22:47:25;10.07;;;5.25;;
46561;SDS011;32289;42.688;23.330;2022-07-03T22:51:06;6.13;;;5.15;;
46561;SDS011;32289;42.688;23.330;2022-07-03T22:54:47;7.40;;;4.68;;
46561;SDS011;32289;42.688;23.330;2022-07-03T22:58:28;7.28;;;4.80;;
46561;SDS011;32289;42.688;23.330;2022-07-03T23:02:10;6.90;;;5.10;;
46561;SDS011;32289;42.688;23.330;2022-07-03T23:05:52;8.40;;;5.10;;
46561;SDS011;32289;42.688;23.330;2022-07-03T23:09:35;9.75;;;5.18;;